Time;durP1;ratioP1;P1;durP2;ratioP2;P2;SDS_P1;SDS_P2;PMS_P1;PMS_P2;Temp;Humidity;BMP_temperature;BMP_pressure;BME280_temperature;BME280_humidity;BME280_pressure;Samples;Min_cycle;Max_cycle;Signal;HPM_P1;HPM_P2
2022/09/12 00:01:52;;;;;;;4.35;3.95;;;;;;;;;;6226841;23;20020;-76
2022/09/12 00:04:37;;;;;;;8.75;4.50;;;;;;;;;;6227114;23;20021;-76
2022/09/12 00:07:23;;;;;;;4.97;4.07;;;;;;;;;;6227490;23;20017;-78
2022/09/12 00:10:08;;;;;;;9.23;4.35;;;;;;;;;;6225722;23;20450;-77
2022/09/12 00:12:54;;;;;;;7.72;4.00;;;;;;;;;;6227536;23;20021;-76
2022/09/12 00:15:42;;;;;;;7.60;4.60;;;;;;;;;;6227295;23;20020;-76
2022/09/12 00:18:28;;;;;;;6.68;4.40;;;;;;;;;;6203430;23;20021;-77
2022/09/12 00:21:15;;;;;;;9.48;4.65;;;;;;;;;;6225667;23;20016;-76
2022/09/12 00:24:01;;;;;;;8.60;4.88;;;;;;;;;;6225705;23;20427;-77
2022/09/12 00:26:47;;;;;;;10.65;5.20;;;;;;;;;;6227436;23;20017;-77
2022/09/12 00:29:33;;;;;;;6.97;5.82;;;;;;;;;;6227243;23;20016;-76
2022/09/12 00:32:18;;;;;;;10.13;5.40;;;;;;;;;;6227359;23;20020;-77
2022/09/12 00:35:04;;;;;;;6.63;5.47;;;;;;;;;;6227306;23;20020;-77
2022/09/12 00:37:49;;;;;;;8.57;6.20;;;;;;;;;;6226823;23;20020;-77
2022/09/12 00:40:35;;;;;;;7.57;6.32;;;;;;;;;;6226854;23;20012;-76
2022/09/12 00:43:29;;;;;;;10.23;5.82;;;;;;;;;;6227471;23;20021;-76
2022/09/12 00:46:25;;;;;;;;;;;;;;;;;;6227465;23;20016;-76
2022/09/12 00:49:25;;;;;;;9.15;5.53;;;;;;;;;;6226952;23;19912;-76
2022/09/12 00:52:15;;;;;;;9.27;5.78;;;;;;;;;;6226785;23;20013;-76
2022/09/12 00:55:07;;;;;;;7.55;6.13;;;;;;;;;;6227211;23;20028;-76
2022/09/12 00:57:58;;;;;;;7.85;6.50;;;;;;;;;;6226623;23;20017;-76
2022/09/12 01:00:43;;;;;;;9.80;6.20;;;;;;;;;;6226714;23;20021;-76
2022/09/12 01:03:29;;;;;;;11.25;6.38;;;;;;;;;;6226664;23;20339;-76
2022/09/12 01:06:29;;;;;;;11.00;6.47;;;;;;;;;;6226602;23;20024;-77
2022/09/12 01:09:18;;;;;;;8.25;5.57;;;;;;;;;;6227091;23;20017;-76
2022/09/12 01:12:04;;;;;;;12.30;6.40;;;;;;;;;;6217352;23;20024;-76
2022/09/12 01:14:50;;;;;;;7.95;5.78;;;;;;;;;;6226935;23;20028;-76
2022/09/12 01:17:47;;;;;;;6.50;5.82;;;;;;;;;;6226898;23;20020;-76
2022/09/12 01:20:54;;;;;;;6.20;5.45;;;;;;;;;;6226397;23;20021;-76
2022/09/12 01:24:07;;;;;;;7.43;5.85;;;;;;;;;;6226913;23;20016;-76
2022/09/12 01:27:03;;;;;;;9.35;6.40;;;;;;;;;;6225137;23;20025;-76
2022/09/12 01:29:48;;;;;;;7.07;6.05;;;;;;;;;;6225285;23;20017;-76
2022/09/12 01:33:09;;;;;;;8.10;5.47;;;;;;;;;;6226672;23;20016;-76
2022/09/12 01:36:06;;;;;;;7.50;6.22;;;;;;;;;;6195706;23;20017;-76
2022/09/12 01:39:00;;;;;;;7.00;5.95;;;;;;;;;;6226477;23;20017;-76
2022/09/12 01:42:09;;;;;;;12.83;6.53;;;;;;;;;;6226496;23;20020;-77
2022/09/12 01:45:04;;;;;;;7.50;6.70;;;;;;;;;;6226488;23;20021;-76
2022/09/12 01:48:12;;;;;;;8.23;6.53;;;;;;;;;;6226357;23;20435;-76
2022/09/12 01:51:12;;;;;;;9.63;6.75;;;;;;;;;;6226081;23;20024;-76
2022/09/12 01:54:05;;;;;;;7.55;6.30;;;;;;;;;;6226360;23;20020;-76
2022/09/12 01:56:54;;;;;;;9.27;6.85;;;;;;;;;;6226902;23;20422;-76
2022/09/12 01:59:44;;;;;;;7.95;6.32;;;;;;;;;;6226477;23;20016;-76
2022/09/12 02:02:37;;;;;;;7.68;6.43;;;;;;;;;;6226045;23;20021;-76
2022/09/12 02:05:31;;;;;;;12.35;7.20;;;;;;;;;;6226075;23;20427;-76
2022/09/12 02:08:22;;;;;;;9.40;6.97;;;;;;;;;;6226238;23;20020;-75
2022/09/12 02:11:10;;;;;;;12.10;6.32;;;;;;;;;;6221406;23;20020;-76
2022/09/12 02:14:20;;;;;;;9.20;6.40;;;;;;;;;;6226795;23;20020;-76
2022/09/12 02:17:12;;;;;;;9.70;6.78;;;;;;;;;;6226030;23;20323;-76
2022/09/12 02:20:04;;;;;;;14.52;6.53;;;;;;;;;;6226079;23;20025;-75
2022/09/12 02:22:53;;;;;;;10.10;6.80;;;;;;;;;;6226032;23;20013;-76
2022/09/12 02:25:43;;;;;;;9.48;7.38;;;;;;;;;;6225777;23;20012;-75
2022/09/12 02:28:39;;;;;;;10.20;7.38;;;;;;;;;;6225893;23;20020;-75
2022/09/12 02:31:27;;;;;;;8.70;6.90;;;;;;;;;;6226121;23;20020;-76
2022/09/12 02:34:15;;;;;;;9.93;6.30;;;;;;;;;;6226350;23;20017;-75
2022/09/12 02:37:13;;;;;;;10.00;6.82;;;;;;;;;;6225896;23;20012;-76
2022/09/12 02:39:58;;;;;;;9.95;6.95;;;;;;;;;;6226283;23;20017;-76
2022/09/12 02:42:43;;;;;;;7.75;6.47;;;;;;;;;;6225811;23;20021;-76
2022/09/12 02:45:33;;;;;;;11.52;6.80;;;;;;;;;;6226210;23;20021;-76
2022/09/12 02:48:26;;;;;;;7.50;6.57;;;;;;;;;;6226150;23;20020;-75
2022/09/12 02:51:12;;;;;;;7.68;6.72;;;;;;;;;;6225722;23;20020;-76
2022/09/12 02:53:58;;;;;;;9.68;6.90;;;;;;;;;;6225819;23;20450;-76
2022/09/12 02:56:44;;;;;;;8.40;6.43;;;;;;;;;;6226032;23;20012;-76
2022/09/12 02:59:29;;;;;;;10.38;6.75;;;;;;;;;;6226238;23;20020;-76
2022/09/12 03:02:41;;;;;;;9.55;7.13;;;;;;;;;;6225873;23;20438;-76
2022/09/12 03:05:39;;;;;;;11.18;6.82;;;;;;;;;;6225642;23;20434;-76
2022/09/12 03:08:51;;;;;;;8.45;6.60;;;;;;;;;;6225905;23;20438;-76
2022/09/12 03:11:50;;;;;;;11.98;7.00;;;;;;;;;;6218280;23;20020;-77
2022/09/12 03:14:41;;;;;;;15.93;6.93;;;;;;;;;;6225849;23;20350;-76
2022/09/12 03:17:38;;;;;;;10.70;6.80;;;;;;;;;;6225941;23;20016;-76
2022/09/12 03:20:36;;;;;;;15.05;7.30;;;;;;;;;;6225828;23;20446;-76
2022/09/12 03:23:32;;;;;;;8.80;6.70;;;;;;;;;;6225717;23;20020;-76
2022/09/12 03:26:27;;;;;;;13.90;7.15;;;;;;;;;;6225555;23;20020;-76
2022/09/12 03:29:14;;;;;;;9.48;7.07;;;;;;;;;;6225722;23;20438;-76
2022/09/12 03:31:59;;;;;;;8.88;6.82;;;;;;;;;;6225814;23;20017;-76
2022/09/12 03:34:44;;;;;;;8.82;6.95;;;;;;;;;;6225703;23;20379;-76
2022/09/12 03:37:30;;;;;;;10.02;6.82;;;;;;;;;;6226179;23;20020;-77
2022/09/12 03:40:16;;;;;;;9.05;7.60;;;;;;;;;;6227345;23;20412;-76
2022/09/12 03:43:02;;;;;;;10.30;7.60;;;;;;;;;;6227775;23;20016;-76
2022/09/12 03:45:52;;;;;;;9.65;7.90;;;;;;;;;;6227259;23;20017;-76
2022/09/12 03:48:38;;;;;;;14.20;7.82;;;;;;;;;;6227500;23;20342;-77
2022/09/12 03:51:24;;;;;;;17.98;8.55;;;;;;;;;;6227749;23;20020;-77
2022/09/12 03:54:10;;;;;;;11.70;8.50;;;;;;;;;;6227205;23;20018;-77
2022/09/12 03:56:55;;;;;;;12.90;9.05;;;;;;;;;;6227235;23;20024;-77
2022/09/12 03:59:41;;;;;;;12.40;8.98;;;;;;;;;;6227516;23;20024;-77
2022/09/12 04:02:27;;;;;;;10.20;8.50;;;;;;;;;;6227640;23;20017;-76
2022/09/12 04:05:13;;;;;;;9.68;8.20;;;;;;;;;;6226749;23;20021;-77
2022/09/12 04:07:58;;;;;;;12.02;8.75;;;;;;;;;;6227060;23;20021;-76
2022/09/12 04:10:44;;;;;;;9.45;7.93;;;;;;;;;;6223435;23;20021;-76
2022/09/12 04:13:30;;;;;;;11.20;8.23;;;;;;;;;;6226970;23;20017;-77
2022/09/12 04:16:16;;;;;;;9.27;8.27;;;;;;;;;;6227443;23;20024;-76
2022/09/12 04:19:02;;;;;;;10.80;8.63;;;;;;;;;;6227899;23;20016;-76
2022/09/12 04:21:47;;;;;;;11.98;8.15;;;;;;;;;;6226937;23;20016;-77
2022/09/12 04:24:33;;;;;;;10.70;8.25;;;;;;;;;;6227412;23;20039;-76
2022/09/12 04:27:18;;;;;;;10.27;8.32;;;;;;;;;;6227266;23;20021;-77
2022/09/12 04:30:05;;;;;;;11.63;8.15;;;;;;;;;;6227031;23;20016;-77
2022/09/12 04:32:51;;;;;;;11.75;8.55;;;;;;;;;;6227035;23;20028;-77
2022/09/12 04:35:36;;;;;;;12.98;8.98;;;;;;;;;;6226865;23;20024;-77
2022/09/12 04:38:23;;;;;;;9.93;8.48;;;;;;;;;;6226916;23;20431;-76
2022/09/12 04:41:21;;;;;;;12.60;9.10;;;;;;;;;;6226982;23;20020;-77
2022/09/12 04:44:10;;;;;;;10.80;7.78;;;;;;;;;;6226704;23;20016;-77
2022/09/12 04:46:56;;;;;;;15.45;8.35;;;;;;;;;;6226255;23;20020;-77
2022/09/12 04:49:41;;;;;;;10.55;8.10;;;;;;;;;;6226895;23;20346;-76
2022/09/12 04:52:27;;;;;;;14.90;8.20;;;;;;;;;;6226869;23;20021;-77
2022/09/12 04:55:12;;;;;;;12.80;8.70;;;;;;;;;;6227353;23;20016;-75
2022/09/12 04:57:59;;;;;;;10.95;7.70;;;;;;;;;;6226689;23;20017;-77
2022/09/12 05:00:45;;;;;;;13.73;7.43;;;;;;;;;;6226601;23;20438;-76
2022/09/12 05:03:30;;;;;;;13.05;7.57;;;;;;;;;;6226644;23;20338;-76
2022/09/12 05:06:22;;;;;;;21.13;9.90;;;;;;;;;;6226841;23;20024;-76
2022/09/12 05:09:10;;;;;;;13.65;9.07;;;;;;;;;;6226594;23;20017;-76
2022/09/12 05:11:55;;;;;;;9.93;7.63;;;;;;;;;;6217819;23;20016;-76
2022/09/12 05:14:40;;;;;;;14.20;8.45;;;;;;;;;;6225980;23;20016;-76
2022/09/12 05:17:28;;;;;;;13.32;8.85;;;;;;;;;;6226145;23;20346;-77
2022/09/12 05:20:15;;;;;;;17.88;8.70;;;;;;;;;;6226449;23;20021;-76
2022/09/12 05:23:00;;;;;;;10.55;8.40;;;;;;;;;;6226178;23;20339;-76
2022/09/12 05:25:51;;;;;;;13.07;8.07;;;;;;;;;;6224754;23;20017;-75
2022/09/12 05:28:37;;;;;;;11.70;8.00;;;;;;;;;;6225931;23;20016;-75
2022/09/12 05:31:27;;;;;;;10.50;7.80;;;;;;;;;;6225079;23;20442;-75
2022/09/12 05:34:12;;;;;;;13.02;8.50;;;;;;;;;;6226272;23;20342;-75
2022/09/12 05:36:58;;;;;;;23.52;8.57;;;;;;;;;;6226327;23;20024;-75
2022/09/12 05:39:44;;;;;;;12.65;9.23;;;;;;;;;;6226334;23;20438;-76
2022/09/12 05:42:29;;;;;;;14.13;9.45;;;;;;;;;;6226198;23;20016;-75
2022/09/12 05:45:14;;;;;;;13.50;10.05;;;;;;;;;;6226108;23;20020;-75
2022/09/12 05:48:01;;;;;;;15.13;9.15;;;;;;;;;;6226276;23;20446;-75
2022/09/12 05:50:46;;;;;;;12.27;7.63;;;;;;;;;;6226230;23;20021;-76
2022/09/12 05:53:32;;;;;;;11.45;6.97;;;;;;;;;;6226112;23;20025;-76
2022/09/12 05:56:21;;;;;;;12.05;7.10;;;;;;;;;;6226513;23;20438;-76
2022/09/12 05:59:12;;;;;;;13.02;7.55;;;;;;;;;;6226229;23;20016;-76
2022/09/12 06:01:57;;;;;;;12.38;7.90;;;;;;;;;;6225320;23;20366;-76
2022/09/12 06:04:44;;;;;;;10.20;6.80;;;;;;;;;;6225735;23;20020;-75
2022/09/12 06:07:31;;;;;;;11.80;8.13;;;;;;;;;;6225972;23;20447;-75
2022/09/12 06:10:16;;;;;;;22.23;8.63;;;;;;;;;;6224097;23;20017;-75
2022/09/12 06:13:03;;;;;;;12.30;7.00;;;;;;;;;;6225949;23;20020;-75
2022/09/12 06:15:49;;;;;;;13.00;6.88;;;;;;;;;;6226016;23;20016;-75
2022/09/12 06:18:35;;;;;;;8.25;6.03;;;;;;;;;;6226359;23;20017;-77
2022/09/12 06:21:22;;;;;;;9.15;6.05;;;;;;;;;;6225776;23;20021;-76
2022/09/12 06:24:07;;;;;;;10.13;6.78;;;;;;;;;;6225945;23;20016;-76
2022/09/12 06:26:53;;;;;;;9.57;6.78;;;;;;;;;;6225611;23;20021;-75
2022/09/12 06:29:38;;;;;;;11.00;6.40;;;;;;;;;;6226229;23;20012;-75
2022/09/12 06:32:30;;;;;;;8.40;6.30;;;;;;;;;;6215662;23;20091;-75
2022/09/12 06:35:14;;;;;;;7.47;5.47;;;;;;;;;;6224214;23;20020;-75
2022/09/12 06:38:00;;;;;;;8.43;6.00;;;;;;;;;;6224446;23;20347;-75
2022/09/12 06:40:46;;;;;;;10.32;5.90;;;;;;;;;;6225894;23;20017;-76
2022/09/12 06:43:32;;;;;;;9.73;5.78;;;;;;;;;;6224832;23;20016;-76
2022/09/12 06:46:18;;;;;;;9.32;4.43;;;;;;;;;;6225467;23;20021;-76
2022/09/12 06:49:04;;;;;;;12.63;5.32;;;;;;;;;;6225727;23;20017;-75
2022/09/12 06:51:49;;;;;;;7.95;4.65;;;;;;;;;;6226286;23;20020;-76
2022/09/12 06:54:34;;;;;;;16.85;6.10;;;;;;;;;;6225671;23;20024;-76
2022/09/12 06:57:20;;;;;;;6.50;4.90;;;;;;;;;;6226185;23;20024;-75
2022/09/12 07:00:06;;;;;;;15.55;9.00;;;;;;;;;;6225840;23;20017;-76
2022/09/12 07:02:55;;;;;;;10.25;5.20;;;;;;;;;;6225816;23;20025;-75
2022/09/12 07:05:39;;;;;;;7.95;3.80;;;;;;;;;;6226061;23;20342;-75
2022/09/12 07:08:24;;;;;;;6.10;3.63;;;;;;;;;;6226783;23;20016;-76
2022/09/12 07:11:19;;;;;;;8.13;4.78;;;;;;;;;;6223061;23;20016;-75
2022/09/12 07:14:05;;;;;;;7.68;4.82;;;;;;;;;;6227784;23;20350;-76
2022/09/12 07:16:51;;;;;;;12.38;6.18;;;;;;;;;;6227747;23;20020;-76
2022/09/12 07:19:37;;;;;;;6.50;4.60;;;;;;;;;;6227829;23;20021;-75
2022/09/12 07:22:22;;;;;;;11.07;5.47;;;;;;;;;;6227777;23;20016;-76
2022/09/12 07:25:08;;;;;;;13.60;3.95;;;;;;;;;;6228003;23;20020;-75
2022/09/12 07:27:54;;;;;;;5.18;3.72;;;;;;;;;;6227959;23;20020;-75
2022/09/12 07:30:39;;;;;;;16.25;9.38;;;;;;;;;;6227582;23;20016;-75
2022/09/12 07:33:28;;;;;;;9.50;4.90;;;;;;;;;;6227729;23;20016;-75
2022/09/12 07:36:15;;;;;;;20.92;13.20;;;;;;;;;;6227860;23;20024;-75
2022/09/12 07:39:01;;;;;;;11.88;7.35;;;;;;;;;;6227868;23;20430;-76
2022/09/12 07:41:46;;;;;;;11.50;6.15;;;;;;;;;;6227772;23;20025;-76
2022/09/12 07:44:32;;;;;;;6.15;3.70;;;;;;;;;;6227395;23;20017;-76
2022/09/12 07:47:17;;;;;;;4.70;3.50;;;;;;;;;;6227077;23;20020;-76
2022/09/12 07:50:02;;;;;;;5.00;3.53;;;;;;;;;;6227462;23;20351;-76
2022/09/12 07:52:49;;;;;;;14.52;6.68;;;;;;;;;;6227031;23;20021;-75
2022/09/12 07:55:34;;;;;;;9.20;4.95;;;;;;;;;;6227656;23;20350;-75
2022/09/12 07:58:20;;;;;;;6.18;3.80;;;;;;;;;;6226805;23;20334;-75
2022/09/12 08:01:11;;;;;;;6.78;4.50;;;;;;;;;;6227830;23;20020;-77
2022/09/12 08:03:58;;;;;;;19.10;11.60;;;;;;;;;;6227625;23;20346;-77
2022/09/12 08:06:43;;;;;;;11.73;6.10;;;;;;;;;;6227479;23;20399;-77
2022/09/12 08:09:28;;;;;;;8.77;3.53;;;;;;;;;;6227193;23;20016;-77
2022/09/12 08:12:15;;;;;;;6.63;2.75;;;;;;;;;;6216803;23;20071;-77
2022/09/12 08:15:01;;;;;;;6.93;1.70;;;;;;;;;;6227196;23;20021;-77
2022/09/12 08:17:46;;;;;;;3.55;2.03;;;;;;;;;;6219225;23;20016;-76
2022/09/12 08:20:32;;;;;;;3.75;2.67;;;;;;;;;;6229253;23;20020;-76
2022/09/12 08:23:20;;;;;;;5.25;2.45;;;;;;;;;;6226770;23;20017;-78
2022/09/12 08:26:05;;;;;;;3.35;2.25;;;;;;;;;;6226717;23;20354;-77
2022/09/12 08:28:52;;;;;;;6.45;2.63;;;;;;;;;;6226891;23;20366;-78
2022/09/12 08:31:37;;;;;;;4.82;2.78;;;;;;;;;;6227059;23;20422;-77
2022/09/12 08:34:23;;;;;;;5.07;3.17;;;;;;;;;;6226854;23;20024;-78
2022/09/12 08:37:08;;;;;;;11.10;4.28;;;;;;;;;;6227120;23;20024;-77
2022/09/12 08:39:53;;;;;;;8.95;3.67;;;;;;;;;;6225799;23;20458;-78
2022/09/12 08:42:58;;;;;;;4.55;2.90;;;;;;;;;;6226986;23;20021;-77
2022/09/12 08:45:55;;;;;;;5.35;2.50;;;;;;;;;;6226911;23;20016;-78
2022/09/12 08:48:44;;;;;;;3.95;2.78;;;;;;;;;;6226737;23;20021;-77
2022/09/12 08:51:33;;;;;;;4.00;2.65;;;;;;;;;;6227329;23;20017;-77
2022/09/12 08:54:26;;;;;;;10.98;3.88;;;;;;;;;;6225567;23;20016;-77
2022/09/12 08:57:13;;;;;;;3.38;2.53;;;;;;;;;;6226980;23;20096;-76
2022/09/12 09:00:03;;;;;;;3.33;2.63;;;;;;;;;;6229346;23;20016;-77
2022/09/12 09:03:00;;;;;;;3.45;2.58;;;;;;;;;;6226859;23;20020;-77
2022/09/12 09:05:50;;;;;;;6.00;2.80;;;;;;;;;;6218124;23;20441;-78
2022/09/12 09:09:05;;;;;;;5.57;3.00;;;;;;;;;;6226743;23;20016;-76
2022/09/12 09:12:03;;;;;;;4.20;2.92;;;;;;;;;;6226365;23;20024;-76
2022/09/12 09:14:55;;;;;;;3.22;2.78;;;;;;;;;;6226466;23;20021;-77
2022/09/12 09:17:43;;;;;;;9.35;2.88;;;;;;;;;;6226492;23;20021;-79
2022/09/12 09:20:43;;;;;;;3.25;2.17;;;;;;;;;;6204411;23;20017;-77
2022/09/12 09:23:45;;;;;;;4.72;2.80;;;;;;;;;;6226358;23;20020;-76
2022/09/12 09:26:51;;;;;;;3.05;2.38;;;;;;;;;;6226875;23;20020;-77
2022/09/12 09:29:45;;;;;;;9.55;7.25;;;;;;;;;;6226455;23;20020;-77
2022/09/12 09:32:40;;;;;;;5.30;3.28;;;;;;;;;;6226629;23;20020;-76
2022/09/12 09:35:37;;;;;;;7.32;5.55;;;;;;;;;;6226204;23;20017;-77
2022/09/12 09:38:47;;;;;;;9.50;5.53;;;;;;;;;;6226649;23;20020;-76
2022/09/12 09:41:47;;;;;;;3.42;3.05;;;;;;;;;;6230761;23;20435;-76
2022/09/12 09:44:32;;;;;;;5.30;2.70;;;;;;;;;;6226605;23;20016;-76
2022/09/12 09:47:18;;;;;;;3.08;1.70;;;;;;;;;;6226670;23;20016;-77
2022/09/12 09:50:03;;;;;;;4.50;2.40;;;;;;;;;;6226202;23;20024;-76
2022/09/12 09:52:51;;;;;;;22.40;12.98;;;;;;;;;;6227003;23;20017;-76
2022/09/12 09:55:41;;;;;;;7.47;5.18;;;;;;;;;;6226830;23;20016;-76
2022/09/12 09:58:34;;;;;;;5.43;3.90;;;;;;;;;;6226005;23;20020;-76
2022/09/12 10:01:20;;;;;;;10.50;3.30;;;;;;;;;;6226362;23;20017;-76
2022/09/12 10:04:24;;;;;;;6.10;3.63;;;;;;;;;;6226520;23;20016;-76
2022/09/12 10:07:18;;;;;;;3.20;2.47;;;;;;;;;;6225881;23;20024;-77
2022/09/12 10:10:12;;;;;;;5.00;3.65;;;;;;;;;;6216871;23;20021;-76
2022/09/12 10:13:19;;;;;;;21.48;12.32;;;;;;;;;;6226386;23;20112;-76
2022/09/12 10:16:17;;;;;;;21.80;11.48;;;;;;;;;;6225688;23;20017;-77
2022/09/12 10:19:03;;;;;;;24.50;16.38;;;;;;;;;;6225981;23;20021;-75
2022/09/12 10:21:51;;;;;;;7.72;6.15;;;;;;;;;;6226050;23;20021;-75
2022/09/12 10:24:41;;;;;;;5.63;2.60;;;;;;;;;;6225998;23;20447;-75
2022/09/12 10:27:32;;;;;;;4.68;3.17;;;;;;;;;;6226346;23;20020;-75
2022/09/12 10:30:20;;;;;;;5.20;3.00;;;;;;;;;;6226343;23;20017;-76
2022/09/12 10:33:11;;;;;;;8.82;5.30;;;;;;;;;;6226247;23;20021;-75
2022/09/12 10:35:56;;;;;;;2.95;2.15;;;;;;;;;;6226002;23;20025;-75
2022/09/12 10:38:52;;;;;;;3.38;2.53;;;;;;;;;;6225996;23;20013;-75
2022/09/12 10:41:40;;;;;;;4.38;2.10;;;;;;;;;;6225835;23;20020;-75
2022/09/12 10:44:29;;;;;;;5.78;2.50;;;;;;;;;;6225806;23;20020;-75
2022/09/12 10:47:21;;;;;;;3.65;2.22;;;;;;;;;;6226749;23;20017;-74
2022/09/12 10:50:35;;;;;;;3.42;2.30;;;;;;;;;;6228422;23;20017;-76
2022/09/12 10:53:23;;;;;;;3.17;2.17;;;;;;;;;;6218584;23;20021;-75
2022/09/12 10:56:13;;;;;;;3.95;2.70;;;;;;;;;;6228253;23;20025;-75
2022/09/12 10:59:30;;;;;;;3.65;2.70;;;;;;;;;;6228003;23;20017;-76
2022/09/12 11:02:26;;;;;;;4.85;3.00;;;;;;;;;;6228238;23;20016;-76
2022/09/12 11:05:26;;;;;;;5.38;3.67;;;;;;;;;;6228453;23;20024;-77
2022/09/12 11:08:26;;;;;;;2.95;2.40;;;;;;;;;;6228154;23;20016;-76
2022/09/12 11:11:42;;;;;;;3.08;2.45;;;;;;;;;;6224671;23;20024;-76
2022/09/12 11:15:05;;;;;;;3.13;1.90;;;;;;;;;;6231020;23;20025;-77
2022/09/12 11:18:04;;;;;;;3.85;3.17;;;;;;;;;;6229901;23;20017;-76
2022/09/12 11:20:56;;;;;;;6.40;3.83;;;;;;;;;;6229029;23;20024;-76
2022/09/12 11:24:12;;;;;;;3.65;2.55;;;;;;;;;;6230782;23;20017;-76
2022/09/12 11:27:16;;;;;;;3.00;2.17;;;;;;;;;;6228095;23;20339;-75
2022/09/12 11:30:14;;;;;;;3.03;2.33;;;;;;;;;;6228539;23;20422;-76
2022/09/12 11:33:06;;;;;;;4.53;3.30;;;;;;;;;;6228137;23;20020;-76
2022/09/12 11:35:52;;;;;;;5.20;3.47;;;;;;;;;;6228635;23;20020;-76
2022/09/12 11:38:51;;;;;;;3.97;2.28;;;;;;;;;;6228165;23;20020;-75
2022/09/12 11:41:49;;;;;;;2.85;2.22;;;;;;;;;;6228095;23;20017;-76
2022/09/12 11:44:42;;;;;;;3.05;2.67;;;;;;;;;;6228541;23;20020;-75
2022/09/12 11:47:30;;;;;;;3.08;2.13;;;;;;;;;;6227507;23;20020;-75
2022/09/12 11:50:27;;;;;;;5.38;3.70;;;;;;;;;;6227428;23;20017;-75
2022/09/12 11:53:22;;;;;;;4.20;2.17;;;;;;;;;;6227333;23;20020;-76
2022/09/12 11:56:14;;;;;;;3.50;2.70;;;;;;;;;;6227169;23;20020;-75
2022/09/12 11:59:17;;;;;;;3.53;2.78;;;;;;;;;;6227441;23;20111;-75
2022/09/12 12:02:03;;;;;;;6.07;4.22;;;;;;;;;;6227628;23;20024;-75
2022/09/12 12:05:10;;;;;;;11.02;6.95;;;;;;;;;;6227603;23;20016;-76
2022/09/12 12:08:01;;;;;;;6.57;4.25;;;;;;;;;;6227833;23;20020;-76
2022/09/12 12:10:55;;;;;;;4.20;2.72;;;;;;;;;;6224285;23;20016;-76
2022/09/12 12:13:50;;;;;;;2.25;1.85;;;;;;;;;;6227586;23;20339;-75
2022/09/12 12:16:39;;;;;;;2.72;1.80;;;;;;;;;;6227492;23;20342;-75
2022/09/12 12:19:35;;;;;;;3.88;1.88;;;;;;;;;;6228258;23;20020;-75
2022/09/12 12:22:24;;;;;;;3.55;1.95;;;;;;;;;;6228169;23;20024;-77
2022/09/12 12:25:13;;;;;;;3.75;2.20;;;;;;;;;;6227703;23;20016;-77
2022/09/12 12:28:00;;;;;;;2.25;1.70;;;;;;;;;;6227963;23;20423;-76
2022/09/12 12:30:52;;;;;;;2.35;1.60;;;;;;;;;;6228126;23;20016;-76
2022/09/12 12:33:37;;;;;;;6.75;3.10;;;;;;;;;;6227175;23;20025;-76
2022/09/12 12:36:39;;;;;;;3.20;2.08;;;;;;;;;;6228269;23;20029;-76
2022/09/12 12:39:33;;;;;;;3.65;1.95;;;;;;;;;;6227770;23;20024;-77
2022/09/12 12:42:34;;;;;;;3.75;1.80;;;;;;;;;;6228127;23;20021;-76
2022/09/12 12:45:28;;;;;;;1.20;1.10;;;;;;;;;;6228499;23;20017;-76
2022/09/12 12:48:15;;;;;;;;;;;;;;;;;;6228303;23;20024;-76
2022/09/12 12:51:28;;;;;;;2.42;0.93;;;;;;;;;;6228968;23;19911;-75
2022/09/12 12:54:29;;;;;;;2.90;1.48;;;;;;;;;;6227270;23;20024;-74
2022/09/12 12:57:17;;;;;;;4.53;1.25;;;;;;;;;;6227434;23;20025;-75
2022/09/12 13:00:26;;;;;;;3.47;1.00;;;;;;;;;;6227137;23;20017;-75
2022/09/12 13:03:29;;;;;;;5.15;1.30;;;;;;;;;;6227119;23;20020;-74
2022/09/12 13:06:34;;;;;;;3.35;1.20;;;;;;;;;;6226727;23;20021;-76
2022/09/12 13:09:33;;;;;;;4.38;1.88;;;;;;;;;;6226394;23;20021;-76
2022/09/12 13:12:19;;;;;;;1.75;1.50;;;;;;;;;;6217401;23;20021;-76
2022/09/12 13:15:36;;;;;;;2.03;1.67;;;;;;;;;;6227132;23;20025;-76
2022/09/12 13:18:26;;;;;;;1.73;1.20;;;;;;;;;;6226774;23;20012;-77
2022/09/12 13:21:17;;;;;;;3.88;1.80;;;;;;;;;;6226444;23;20016;-77
2022/09/12 13:24:15;;;;;;;1.13;1.00;;;;;;;;;;6227538;23;20016;-76
2022/09/12 13:27:01;;;;;;;2.38;1.50;;;;;;;;;;6227484;23;20017;-76
2022/09/12 13:29:48;;;;;;;3.63;1.55;;;;;;;;;;6227828;23;20020;-76
2022/09/12 13:32:33;;;;;;;2.40;2.00;;;;;;;;;;6227102;23;20020;-75
2022/09/12 13:35:32;;;;;;;1.83;1.20;;;;;;;;;;6226240;23;20021;-76
2022/09/12 13:38:41;;;;;;;1.15;0.93;;;;;;;;;;6226845;23;20021;-76
2022/09/12 13:42:27;;;;;;;2.28;1.63;;;;;;;;;;6226716;23;20016;-77
2022/09/12 13:45:13;;;;;;;3.00;1.35;;;;;;;;;;6105547;23;20022;-76
2022/09/12 13:48:03;;;;;;;0.85;0.73;;;;;;;;;;6104910;23;20022;-77
2022/09/12 13:50:56;;;;;;;3.70;0.82;;;;;;;;;;6226290;23;20024;-76
2022/09/12 13:53:45;;;;;;;2.22;0.82;;;;;;;;;;6226776;23;20020;-77
2022/09/12 13:56:30;;;;;;;1.15;1.00;;;;;;;;;;6226498;23;20025;-77
2022/09/12 13:59:16;;;;;;;2.05;1.17;;;;;;;;;;6226424;23;20021;-77
2022/09/12 14:02:01;;;;;;;2.30;1.30;;;;;;;;;;6226160;23;20347;-78
2022/09/12 14:07:57;;;;;;;3.75;1.10;;;;;;;;;;6225850;23;20016;-77
2022/09/12 14:10:46;;;;;;;2.10;1.08;;;;;;;;;;6223367;23;20108;-78
2022/09/12 14:13:32;;;;;;;2.17;1.30;;;;;;;;;;6226582;23;20016;-76
2022/09/12 14:16:20;;;;;;;1.58;0.90;;;;;;;;;;6226173;23;20442;-76
2022/09/12 14:19:05;;;;;;;1.25;0.95;;;;;;;;;;6226272;23;20345;-77
2022/09/12 14:21:52;;;;;;;5.70;2.60;;;;;;;;;;6225603;23;20016;-78
2022/09/12 14:24:38;;;;;;;2.10;1.75;;;;;;;;;;6226081;23;20426;-77
2022/09/12 14:27:27;;;;;;;3.70;1.20;;;;;;;;;;6225950;23;20020;-77
2022/09/12 14:30:31;;;;;;;2.33;1.45;;;;;;;;;;6225822;23;20021;-77
2022/09/12 14:33:19;;;;;;;1.92;1.30;;;;;;;;;;6225879;23;20017;-76
2022/09/12 14:36:32;;;;;;;1.88;1.17;;;;;;;;;;6226614;23;20021;-76
2022/09/12 14:39:32;;;;;;;3.10;1.27;;;;;;;;;;6226701;23;20020;-77
2022/09/12 14:42:20;;;;;;;3.15;1.27;;;;;;;;;;6225738;23;20024;-77
2022/09/12 14:45:16;;;;;;;2.13;1.48;;;;;;;;;;6227089;23;20020;-76
2022/09/12 14:48:02;;;;;;;3.95;1.50;;;;;;;;;;6227720;23;20016;-76
2022/09/12 14:50:50;;;;;;;3.03;1.50;;;;;;;;;;6228338;23;20021;-76
2022/09/12 14:53:36;;;;;;;1.38;1.05;;;;;;;;;;6227363;23;20426;-76
2022/09/12 14:56:37;;;;;;;4.13;1.38;;;;;;;;;;6226229;23;20020;-76
2022/09/12 14:59:37;;;;;;;2.13;1.10;;;;;;;;;;6226214;23;20407;-75
2022/09/12 15:02:25;;;;;;;4.25;1.48;;;;;;;;;;6224966;23;20020;-76
2022/09/12 15:05:10;;;;;;;1.80;1.38;;;;;;;;;;6225670;23;20021;-75
2022/09/12 15:08:00;;;;;;;2.08;1.30;;;;;;;;;;6226285;23;20020;-75
2022/09/12 15:10:45;;;;;;;2.42;1.70;;;;;;;;;;6226203;23;20442;-75
2022/09/12 15:13:38;;;;;;;4.55;1.40;;;;;;;;;;6226205;23;20016;-75
2022/09/12 15:16:24;;;;;;;2.15;0.98;;;;;;;;;;6202712;23;20024;-76
2022/09/12 15:19:10;;;;;;;4.57;1.42;;;;;;;;;;6225461;23;20013;-75
2022/09/12 15:21:55;;;;;;;1.52;1.17;;;;;;;;;;6225166;23;20017;-76
2022/09/12 15:24:41;;;;;;;2.47;1.48;;;;;;;;;;6216823;23;20012;-76
2022/09/12 15:27:26;;;;;;;2.30;1.60;;;;;;;;;;6225400;23;20021;-76
2022/09/12 15:30:12;;;;;;;4.60;1.70;;;;;;;;;;6227019;23;20012;-76
2022/09/12 15:32:58;;;;;;;3.92;1.50;;;;;;;;;;6226472;23;20020;-75
2022/09/12 15:35:45;;;;;;;2.08;1.58;;;;;;;;;;6227979;23;20024;-76
2022/09/12 15:38:30;;;;;;;1.60;1.30;;;;;;;;;;6226327;23;20024;-75
2022/09/12 15:41:18;;;;;;;2.97;1.33;;;;;;;;;;6227209;23;20021;-75
2022/09/12 15:44:04;;;;;;;1.50;1.20;;;;;;;;;;6227876;23;20020;-75
2022/09/12 15:46:50;;;;;;;4.65;1.60;;;;;;;;;;6227414;23;20020;-75
2022/09/12 15:49:35;;;;;;;3.30;1.88;;;;;;;;;;6227608;23;20017;-76
2022/09/12 15:52:21;;;;;;;5.25;2.30;;;;;;;;;;6227572;23;20028;-76
2022/09/12 15:55:16;;;;;;;5.65;2.28;;;;;;;;;;6227156;23;20339;-76
2022/09/12 15:58:02;;;;;;;6.10;3.40;;;;;;;;;;6227515;23;20021;-75
2022/09/12 16:00:47;;;;;;;13.18;3.83;;;;;;;;;;6227722;23;20016;-75
2022/09/12 16:03:33;;;;;;;3.75;2.60;;;;;;;;;;6227826;23;20024;-75
2022/09/12 16:06:19;;;;;;;6.85;2.45;;;;;;;;;;6227843;23;20020;-77
2022/09/12 16:09:04;;;;;;;2.90;2.10;;;;;;;;;;6205230;23;20029;-75
2022/09/12 16:11:49;;;;;;;3.45;2.00;;;;;;;;;;6227224;23;20427;-77
2022/09/12 16:14:35;;;;;;;6.18;2.20;;;;;;;;;;6227564;23;20454;-77
2022/09/12 16:17:20;;;;;;;5.20;2.20;;;;;;;;;;6227347;23;20017;-77
2022/09/12 16:20:07;;;;;;;5.88;3.78;;;;;;;;;;6227200;23;20021;-76
2022/09/12 16:22:52;;;;;;;11.85;7.97;;;;;;;;;;6231915;23;20347;-75
2022/09/12 16:25:41;;;;;;;10.68;6.53;;;;;;;;;;6227278;23;20021;-76
2022/09/12 16:28:27;;;;;;;6.25;2.97;;;;;;;;;;6226956;23;20025;-78
2022/09/12 16:31:13;;;;;;;4.43;2.53;;;;;;;;;;6226956;23;20021;-80
2022/09/12 16:33:59;;;;;;;4.43;2.38;;;;;;;;;;6227012;23;20021;-77
2022/09/12 16:36:44;;;;;;;4.50;2.50;;;;;;;;;;6227098;23;20020;-78
2022/09/12 16:39:30;;;;;;;5.43;2.80;;;;;;;;;;6226831;23;20016;-75
2022/09/12 16:42:18;;;;;;;7.18;2.97;;;;;;;;;;6226756;23;20016;-76
2022/09/12 16:45:05;;;;;;;5.75;2.95;;;;;;;;;;6226508;23;20017;-76
2022/09/12 16:47:50;;;;;;;4.97;3.05;;;;;;;;;;6226491;23;20047;-75
2022/09/12 16:50:36;;;;;;;8.55;3.00;;;;;;;;;;6226826;23;20020;-76
2022/09/12 16:53:21;;;;;;;5.25;3.17;;;;;;;;;;6226633;23;20028;-77
2022/09/12 16:56:08;;;;;;;7.07;3.70;;;;;;;;;;6226424;23;20426;-77
2022/09/12 16:58:53;;;;;;;12.82;5.90;;;;;;;;;;6226599;23;20020;-77
2022/09/12 17:01:38;;;;;;;11.68;5.72;;;;;;;;;;6226575;23;20446;-76
2022/09/12 17:04:24;;;;;;;8.98;5.35;;;;;;;;;;6226479;23;20012;-76